Time;durP1;ratioP1;P1;durP2;ratioP2;P2;SDS_P1;SDS_P2;PMS_P1;PMS_P2;Temp;Humidity;BMP_temperature;BMP_pressure;BME280_temperature;BME280_humidity;BME280_pressure;Samples;Min_cycle;Max_cycle;Signal;HPM_P1;HPM_P2
2021/09/05 00:00:27;;;;;;;33.17;16.77;;;14.30;99.90;;;;;;5091688;28;20040;-59
2021/09/05 00:02:53;;;;;;;30.02;16.27;;;14.30;99.90;;;;;;5091732;28;20082;-58
2021/09/05 00:05:18;;;;;;;31.20;17.58;;;14.30;99.90;;;;;;5091535;28;20068;-58
2021/09/05 00:07:44;;;;;;;26.80;15.50;;;14.20;99.90;;;;;;5091544;28;20032;-58
2021/09/05 00:10:10;;;;;;;25.40;16.10;;;14.20;99.90;;;;;;5094126;28;20032;-58
2021/09/05 00:12:37;;;;;;;33.58;16.17;;;14.20;99.90;;;;;;5095934;28;20032;-58
2021/09/05 00:15:04;;;;;;;29.08;14.43;;;14.20;99.90;;;;;;5095760;28;20043;-57
2021/09/05 00:17:30;;;;;;;27.30;14.52;;;14.30;99.90;;;;;;5077972;28;20118;-58
2021/09/05 00:19:56;;;;;;;30.33;15.05;;;14.20;99.90;;;;;;5095550;28;20127;-58
2021/09/05 00:22:21;;;;;;;25.35;13.82;;;14.10;99.90;;;;;;5095916;28;20028;-58
2021/09/05 00:24:47;;;;;;;19.45;13.50;;;14.10;99.90;;;;;;5095617;28;20444;-58
2021/09/05 00:27:12;;;;;;;24.77;14.77;;;14.00;99.90;;;;;;5095707;28;20086;-58
2021/09/05 00:29:38;;;;;;;29.70;14.50;;;14.00;99.90;;;;;;5095603;28;20043;-58
2021/09/05 00:32:04;;;;;;;21.65;13.90;;;14.00;99.90;;;;;;5095522;28;20036;-58
2021/09/05 00:34:30;;;;;;;24.33;14.20;;;13.90;99.90;;;;;;5095388;28;20075;-58
2021/09/05 00:36:55;;;;;;;37.88;14.77;;;13.90;99.90;;;;;;5095303;28;20068;-58
2021/09/05 00:39:21;;;;;;;20.05;12.57;;;13.90;99.90;;;;;;5095500;28;20513;-58
2021/09/05 00:41:47;;;;;;;25.67;13.70;;;13.90;99.90;;;;;;5095650;28;20450;-58
2021/09/05 00:44:13;;;;;;;24.15;12.90;;;13.90;99.90;;;;;;5095453;28;20039;-58
2021/09/05 00:46:40;;;;;;;28.50;16.20;;;13.90;99.90;;;;;;5076931;28;20169;-58
2021/09/05 00:49:08;;;;;;;27.50;17.40;;;13.80;99.90;;;;;;5095038;28;20047;-58
2021/09/05 00:51:35;;;;;;;24.75;15.27;;;13.70;99.90;;;;;;5095101;28;20039;-58
2021/09/05 00:54:06;;;;;;;24.27;14.75;;;13.70;99.90;;;;;;5095546;28;20036;-58
2021/09/05 00:56:33;;;;;;;25.38;16.13;;;13.80;99.90;;;;;;5095070;28;20036;-58
2021/09/05 00:59:07;;;;;;;26.48;16.67;;;13.70;99.90;;;;;;5095012;28;20072;-58
2021/09/05 01:01:36;;;;;;;30.63;16.10;;;13.60;99.90;;;;;;5094857;28;20051;-58
2021/09/05 01:04:02;;;;;;;23.27;14.25;;;13.50;99.90;;;;;;5095017;28;20044;-58
2021/09/05 01:06:28;;;;;;;25.05;15.05;;;13.60;99.90;;;;;;5094930;28;20047;-58
2021/09/05 01:08:56;;;;;;;25.00;15.05;;;13.50;99.90;;;;;;5094841;28;20467;-58
2021/09/05 01:11:23;;;;;;;23.92;15.10;;;13.50;99.90;;;;;;5094878;28;20401;-58
2021/09/05 01:13:49;;;;;;;24.48;15.13;;;13.50;99.90;;;;;;5094758;28;20440;-58
2021/09/05 01:16:30;;;;;;;24.98;15.65;;;13.50;99.90;;;;;;5094662;28;20037;-58
2021/09/05 01:19:02;;;;;;;27.20;14.57;;;13.50;99.90;;;;;;5094653;28;20078;-58
2021/09/05 01:21:28;;;;;;;26.52;15.10;;;13.40;99.90;;;;;;5094352;28;20048;-58
2021/09/05 01:23:54;;;;;;;24.23;15.73;;;13.50;99.90;;;;;;5094549;28;20123;-58
2021/09/05 01:26:21;;;;;;;20.25;13.55;;;13.50;99.90;;;;;;5094487;28;20043;-58
2021/09/05 01:28:46;;;;;;;24.55;13.98;;;13.50;99.90;;;;;;5094219;28;20062;-58
2021/09/05 01:31:13;;;;;;;22.52;13.75;;;13.50;99.90;;;;;;5094437;28;20478;-58
2021/09/05 01:33:38;;;;;;;27.10;14.85;;;13.40;99.90;;;;;;5094385;28;20078;-58
2021/09/05 01:36:04;;;;;;;31.77;16.02;;;13.40;99.90;;;;;;5094151;28;20063;-58
2021/09/05 01:38:32;;;;;;;24.15;13.77;;;13.40;99.90;;;;;;5094335;28;20090;-61
2021/09/05 01:40:58;;;;;;;32.55;17.17;;;13.40;99.90;;;;;;5094107;28;20115;-58
2021/09/05 01:43:25;;;;;;;25.67;15.75;;;13.40;99.90;;;;;;5094249;28;20118;-58
2021/09/05 01:45:51;;;;;;;30.35;16.52;;;13.50;99.90;;;;;;5094113;28;20485;-58
2021/09/05 01:48:17;;;;;;;27.17;17.92;;;13.50;99.90;;;;;;5094330;28;20055;-58
2021/09/05 01:50:43;;;;;;;33.03;16.92;;;13.50;99.90;;;;;;5076054;28;20068;-59
2021/09/05 01:53:08;;;;;;;26.65;16.52;;;13.60;99.90;;;;;;5094056;28;20461;-58
2021/09/05 01:55:34;;;;;;;33.30;18.15;;;13.70;99.90;;;;;;5093927;28;20470;-59
2021/09/05 01:58:00;;;;;;;34.15;19.80;;;13.70;99.90;;;;;;5093797;28;20040;-58
2021/09/05 02:00:25;;;;;;;31.88;16.85;;;13.70;99.90;;;;;;5093968;28;20072;-58
2021/09/05 02:02:51;;;;;;;30.67;16.67;;;13.70;99.90;;;;;;5093799;28;20476;-59
2021/09/05 02:05:17;;;;;;;24.27;16.08;;;13.70;99.90;;;;;;5093798;28;20490;-59
2021/09/05 02:07:43;;;;;;;25.25;15.85;;;13.80;99.90;;;;;;5093683;28;20119;-58
2021/09/05 02:10:09;;;;;;;28.75;17.92;;;13.70;99.90;;;;;;5093994;28;20031;-59
2021/09/05 02:12:35;;;;;;;27.52;16.58;;;13.70;99.90;;;;;;5093554;28;20040;-58
2021/09/05 02:15:00;;;;;;;32.33;18.33;;;13.70;99.90;;;;;;5075232;28;20504;-58
2021/09/05 02:17:26;;;;;;;32.80;17.95;;;13.70;99.90;;;;;;5093599;28;20093;-58
2021/09/05 02:19:52;;;;;;;30.08;18.13;;;13.70;99.90;;;;;;5093341;28;20382;-58
2021/09/05 02:22:17;;;;;;;30.90;16.77;;;13.70;99.90;;;;;;5093395;28;20032;-58
2021/09/05 02:24:43;;;;;;;35.88;19.42;;;13.70;99.90;;;;;;5093344;28;20165;-58
2021/09/05 02:27:09;;;;;;;33.83;19.13;;;13.70;99.90;;;;;;5093218;28;20073;-58
2021/09/05 02:29:34;;;;;;;34.50;19.00;;;13.80;99.90;;;;;;5093655;28;20040;-58
2021/09/05 02:32:00;;;;;;;33.60;19.00;;;13.80;99.90;;;;;;5092710;28;20413;-59
2021/09/05 02:34:26;;;;;;;32.22;19.67;;;13.80;99.90;;;;;;5093159;28;20075;-59
2021/09/05 02:36:51;;;;;;;33.47;18.60;;;13.70;99.90;;;;;;5092950;28;20406;-58
2021/09/05 02:39:17;;;;;;;35.13;19.55;;;13.80;99.90;;;;;;5093065;28;20136;-58
2021/09/05 02:41:42;;;;;;;28.52;18.10;;;13.70;99.90;;;;;;5092846;28;20040;-58
2021/09/05 02:44:08;;;;;;;41.45;20.02;;;13.70;99.90;;;;;;5093150;28;20470;-58
2021/09/05 02:46:34;;;;;;;29.80;17.63;;;13.70;99.90;;;;;;5092966;28;20047;-58
2021/09/05 02:48:59;;;;;;;31.23;18.63;;;13.70;99.90;;;;;;5092806;28;20394;-58
2021/09/05 02:51:25;;;;;;;29.27;17.00;;;13.60;99.90;;;;;;5092896;28;20043;-59
2021/09/05 02:53:50;;;;;;;31.98;18.80;;;13.60;99.90;;;;;;5092634;28;20415;-59
2021/09/05 02:56:16;;;;;;;33.05;17.65;;;13.60;99.90;;;;;;5092694;28;20036;-59
2021/09/05 02:58:42;;;;;;;28.52;18.38;;;13.60;99.90;;;;;;5092829;28;20075;-58
2021/09/05 03:01:09;;;;;;;29.20;19.00;;;13.60;99.90;;;;;;5092591;28;20040;-58
2021/09/05 03:03:34;;;;;;;30.00;18.08;;;13.50;99.90;;;;;;5092634;28;20036;-58
2021/09/05 03:06:00;;;;;;;32.95;18.50;;;13.50;99.90;;;;;;5092662;28;20054;-59
2021/09/05 03:08:26;;;;;;;29.58;17.02;;;13.50;99.90;;;;;;5092595;28;20044;-58
2021/09/05 03:10:51;;;;;;;31.95;18.23;;;13.50;99.90;;;;;;5092514;28;20040;-58
2021/09/05 03:13:17;;;;;;;29.42;19.02;;;13.50;99.90;;;;;;5092348;28;20115;-58
2021/09/05 03:15:43;;;;;;;30.40;18.55;;;13.50;99.90;;;;;;5092553;28;20451;-59
2021/09/05 03:18:09;;;;;;;29.63;19.95;;;13.40;99.90;;;;;;5092366;28;20072;-59
2021/09/05 03:20:35;;;;;;;30.52;18.45;;;13.40;99.90;;;;;;5092496;28;20150;-58
2021/09/05 03:23:01;;;;;;;25.42;16.65;;;13.40;99.90;;;;;;5092249;28;20067;-58
2021/09/05 03:25:26;;;;;;;29.65;18.02;;;13.30;99.90;;;;;;5092191;28;20079;-59
2021/09/05 03:27:52;;;;;;;34.95;20.38;;;13.40;99.90;;;;;;5092189;28;20036;-58
2021/09/05 03:30:18;;;;;;;32.95;19.48;;;13.40;99.90;;;;;;5092251;28;20081;-58
2021/09/05 03:32:43;;;;;;;30.67;18.40;;;13.30;99.90;;;;;;5092262;28;20035;-59
2021/09/05 03:35:09;;;;;;;30.50;18.75;;;13.30;99.90;;;;;;5092080;28;20111;-58
2021/09/05 03:37:35;;;;;;;31.02;19.35;;;13.20;99.90;;;;;;5091922;28;20537;-59
2021/09/05 03:40:01;;;;;;;28.67;19.05;;;13.30;99.90;;;;;;5091831;28;20044;-58
2021/09/05 03:42:26;;;;;;;30.60;19.13;;;13.20;99.90;;;;;;5091903;28;20170;-59
2021/09/05 03:44:52;;;;;;;35.15;20.48;;;13.20;99.90;;;;;;5091132;28;20040;-58
2021/09/05 03:47:18;;;;;;;29.23;18.92;;;13.20;99.90;;;;;;5092101;28;20371;-59
2021/09/05 03:49:43;;;;;;;30.02;19.55;;;13.20;99.90;;;;;;5092082;28;20323;-59
2021/09/05 03:52:09;;;;;;;34.35;19.63;;;13.20;99.90;;;;;;5091866;28;20153;-58
2021/09/05 03:54:35;;;;;;;32.22;20.77;;;13.20;99.90;;;;;;5091739;28;20032;-60
2021/09/05 03:57:00;;;;;;;30.08;18.38;;;13.10;99.90;;;;;;5091944;28;20168;-59
2021/09/05 03:59:26;;;;;;;32.78;20.42;;;13.20;99.90;;;;;;5091934;28;20119;-59
2021/09/05 04:01:52;;;;;;;34.63;21.63;;;13.10;99.90;;;;;;5091745;28;20063;-59
2021/09/05 04:04:18;;;;;;;32.90;19.77;;;13.10;99.90;;;;;;5091743;28;20043;-59
2021/09/05 04:06:49;;;;;;;29.20;19.02;;;13.10;99.90;;;;;;5091733;28;20385;-60
2021/09/05 04:10:08;;;;;;;27.98;18.33;;;13.10;99.90;;;;;;5091590;28;20064;-59
2021/09/05 04:12:03;;;;;;;33.30;20.63;;;13.00;99.90;;;;;;5091492;28;20117;-59
2021/09/05 04:14:29;;;;;;;36.65;20.50;;;13.00;99.90;;;;;;5091787;28;20070;-59
2021/09/05 04:16:55;;;;;;;31.35;20.75;;;13.00;99.90;;;;;;5091536;28;20101;-59
2021/09/05 04:19:21;;;;;;;29.60;18.50;;;13.00;99.90;;;;;;5092036;28;20446;-59
2021/09/05 04:21:47;;;;;;;31.60;20.45;;;13.00;99.90;;;;;;5073234;28;20131;-59
2021/09/05 04:24:12;;;;;;;29.10;19.30;;;12.90;99.90;;;;;;5091522;28;20047;-59
2021/09/05 04:26:38;;;;;;;31.92;20.58;;;12.90;99.90;;;;;;5091551;28;20093;-59
2021/09/05 04:29:03;;;;;;;29.83;19.00;;;12.90;99.90;;;;;;5091496;28;20125;-60
2021/09/05 04:31:29;;;;;;;33.47;20.00;;;12.90;99.90;;;;;;5091403;28;20036;-59
2021/09/05 04:33:55;;;;;;;30.50;19.88;;;12.90;99.90;;;;;;5091393;28;20048;-59
2021/09/05 04:36:20;;;;;;;30.85;19.88;;;12.80;99.90;;;;;;5091267;28;20131;-59
2021/09/05 04:38:46;;;;;;;30.58;20.17;;;12.90;99.90;;;;;;5091443;28;20424;-59
2021/09/05 04:41:12;;;;;;;32.67;21.33;;;12.80;99.90;;;;;;5073453;28;20486;-59
2021/09/05 04:43:37;;;;;;;37.90;21.08;;;12.80;99.90;;;;;;5091672;28;20044;-59
2021/09/05 04:46:03;;;;;;;37.17;22.45;;;12.80;99.90;;;;;;5091423;28;20097;-59
2021/09/05 04:48:28;;;;;;;36.17;21.33;;;12.80;99.90;;;;;;5091095;28;20119;-60
2021/09/05 04:50:54;;;;;;;34.30;21.92;;;12.70;99.90;;;;;;5091290;28;20105;-58
2021/09/05 04:53:20;;;;;;;33.67;20.73;;;12.70;99.90;;;;;;5091454;28;20055;-60
2021/09/05 04:55:45;;;;;;;31.05;20.70;;;12.80;99.90;;;;;;5092664;28;20439;-59
2021/09/05 04:58:11;;;;;;;30.58;20.73;;;12.70;99.90;;;;;;5095095;28;20044;-59
2021/09/05 05:00:36;;;;;;;34.42;21.80;;;12.70;99.90;;;;;;5095032;28;20036;-59
2021/09/05 05:03:02;;;;;;;39.58;23.42;;;12.70;99.90;;;;;;5094798;28;20040;-58
2021/09/05 05:05:28;;;;;;;35.95;22.42;;;12.60;99.90;;;;;;5094818;28;20473;-59
2021/09/05 05:07:54;;;;;;;36.05;23.05;;;12.60;99.90;;;;;;5094924;28;20079;-59
2021/09/05 05:10:23;;;;;;;40.33;23.15;;;12.70;99.90;;;;;;5094875;28;20039;-59
2021/09/05 05:12:49;;;;;;;38.78;23.88;;;12.70;99.90;;;;;;5094740;28;20479;-59
2021/09/05 05:15:15;;;;;;;40.67;23.75;;;12.60;99.90;;;;;;5094711;28;20053;-59
2021/09/05 05:17:40;;;;;;;39.50;23.95;;;12.60;99.90;;;;;;5094687;28;20047;-59
2021/09/05 05:20:06;;;;;;;43.35;24.85;;;12.60;99.90;;;;;;5094391;28;20044;-60
2021/09/05 05:22:32;;;;;;;42.25;25.23;;;12.60;99.90;;;;;;5094798;28;20032;-60
2021/09/05 05:24:58;;;;;;;55.03;26.45;;;12.60;99.90;;;;;;5094421;28;20040;-60
2021/09/05 05:27:23;;;;;;;37.13;22.90;;;12.60;99.90;;;;;;5094771;28;20046;-59
2021/09/05 05:29:49;;;;;;;41.80;25.73;;;12.60;99.90;;;;;;5094513;28;20442;-59
2021/09/05 05:32:14;;;;;;;42.53;23.52;;;12.70;99.90;;;;;;5094388;28;20139;-59
2021/09/05 05:34:40;;;;;;;34.63;23.90;;;12.60;99.90;;;;;;5094170;28;20056;-59
2021/09/05 05:37:06;;;;;;;30.45;22.27;;;12.60;99.90;;;;;;5094099;28;20055;-58
2021/09/05 05:39:31;;;;;;;40.97;24.65;;;12.60;99.90;;;;;;5094517;28;20044;-59
2021/09/05 05:41:57;;;;;;;47.78;26.45;;;12.60;99.90;;;;;;5094234;28;20035;-58
2021/09/05 05:44:23;;;;;;;45.78;26.27;;;12.70;99.90;;;;;;5075921;28;20052;-59
2021/09/05 05:46:48;;;;;;;39.88;24.58;;;12.70;99.90;;;;;;5094041;28;20068;-59
2021/09/05 05:49:14;;;;;;;35.45;23.33;;;12.80;99.90;;;;;;5093911;28;20094;-59
2021/09/05 05:51:39;;;;;;;38.22;24.45;;;12.80;99.90;;;;;;5094095;28;20553;-59
2021/09/05 05:54:05;;;;;;;39.08;25.58;;;12.80;99.90;;;;;;5094155;28;20040;-59
2021/09/05 05:56:30;;;;;;;41.72;25.25;;;12.90;99.90;;;;;;5093943;28;20032;-59
2021/09/05 05:58:56;;;;;;;41.13;24.52;;;13.00;99.90;;;;;;5093927;28;20040;-59
2021/09/05 06:01:23;;;;;;;41.22;25.52;;;13.10;99.90;;;;;;5093732;28;20072;-59
2021/09/05 06:03:49;;;;;;;38.17;25.30;;;13.10;99.90;;;;;;5075487;28;20051;-59
2021/09/05 06:06:14;;;;;;;45.22;25.77;;;13.20;99.90;;;;;;5093882;28;20036;-59
2021/09/05 06:08:40;;;;;;;40.83;26.05;;;13.30;99.90;;;;;;5093093;28;20040;-59
2021/09/05 06:11:06;;;;;;;47.03;27.70;;;13.40;99.90;;;;;;5093704;28;20107;-59
2021/09/05 06:13:32;;;;;;;47.30;26.25;;;13.40;99.90;;;;;;5093630;28;20081;-58
2021/09/05 06:15:57;;;;;;;40.20;27.42;;;13.50;99.90;;;;;;5093496;28;20115;-59
2021/09/05 06:18:23;;;;;;;42.47;26.33;;;13.50;99.90;;;;;;5093309;28;20375;-59
2021/09/05 06:20:49;;;;;;;41.00;25.67;;;13.60;99.90;;;;;;5093599;28;20040;-59
2021/09/05 06:23:15;;;;;;;38.90;26.10;;;13.70;99.90;;;;;;5093463;28;20047;-59
2021/09/05 06:25:40;;;;;;;39.38;26.33;;;13.70;99.90;;;;;;5093738;28;20036;-58
2021/09/05 06:28:06;;;;;;;42.80;27.80;;;13.80;99.90;;;;;;5093115;28;20044;-59
2021/09/05 06:30:32;;;;;;;41.55;26.55;;;13.80;99.90;;;;;;5093284;28;20063;-59
2021/09/05 06:32:57;;;;;;;46.70;28.23;;;13.80;99.90;;;;;;5093054;28;20032;-58
2021/09/05 06:35:23;;;;;;;47.88;27.33;;;13.80;99.90;;;;;;5093283;28;20043;-60
2021/09/05 06:37:48;;;;;;;48.45;28.83;;;13.80;99.90;;;;;;5092833;28;20056;-58
2021/09/05 06:40:14;;;;;;;61.97;28.48;;;13.70;99.90;;;;;;5093066;28;20048;-59
2021/09/05 06:42:40;;;;;;;53.70;28.17;;;13.70;99.90;;;;;;5093029;28;20050;-59
2021/09/05 06:45:06;;;;;;;58.63;28.67;;;13.70;99.90;;;;;;5093209;28;20101;-59
2021/09/05 06:47:31;;;;;;;48.00;26.92;;;13.60;99.90;;;;;;5093079;28;20106;-58
2021/09/05 06:49:57;;;;;;;42.13;25.67;;;13.60;99.90;;;;;;5093176;28;20485;-59
2021/09/05 06:52:23;;;;;;;51.63;27.80;;;13.60;99.90;;;;;;5074861;28;20040;-58
2021/09/05 06:54:48;;;;;;;43.88;27.60;;;13.60;99.90;;;;;;5092708;28;20040;-58
2021/09/05 06:57:14;;;;;;;55.67;27.23;;;13.60;99.90;;;;;;5092785;28;20036;-58
2021/09/05 06:59:39;;;;;;;66.70;26.27;;;13.70;99.90;;;;;;5092731;28;20039;-59
2021/09/05 07:02:05;;;;;;;63.42;26.90;;;13.70;99.90;;;;;;5092596;28;20046;-58
2021/09/05 07:04:32;;;;;;;53.90;26.05;;;13.60;99.90;;;;;;5092762;28;20485;-58
2021/09/05 07:06:58;;;;;;;49.00;23.45;;;13.70;99.90;;;;;;5092617;28;20090;-59
2021/09/05 07:09:23;;;;;;;81.15;23.55;;;13.70;99.90;;;;;;5092530;28;20036;-59
2021/09/05 07:11:49;;;;;;;52.13;25.00;;;13.60;99.90;;;;;;5092412;28;20097;-59
2021/09/05 07:14:15;;;;;;;51.15;24.00;;;13.50;99.90;;;;;;5092370;28;20040;-58
2021/09/05 07:16:40;;;;;;;68.63;23.90;;;13.50;99.90;;;;;;5092314;28;20036;-58
2021/09/05 07:19:06;;;;;;;46.03;23.30;;;13.50;99.90;;;;;;5092291;28;20042;-58
2021/09/05 07:21:32;;;;;;;35.42;22.10;;;13.50;99.90;;;;;;5092525;28;20488;-58
2021/09/05 07:23:57;;;;;;;33.65;22.10;;;13.60;99.90;;;;;;5092355;28;20085;-58
2021/09/05 07:26:23;;;;;;;46.03;24.58;;;13.70;99.90;;;;;;5092549;28;20104;-58
2021/09/05 07:28:49;;;;;;;35.38;24.38;;;13.70;99.90;;;;;;5092180;28;20443;-57
2021/09/05 07:31:14;;;;;;;50.75;25.20;;;13.80;99.90;;;;;;5092137;28;20040;-58
2021/09/05 07:33:40;;;;;;;48.70;25.92;;;13.80;99.90;;;;;;5092300;28;20036;-58
2021/09/05 07:36:06;;;;;;;45.28;24.55;;;13.80;99.90;;;;;;5092016;28;20042;-58
2021/09/05 07:38:32;;;;;;;45.92;24.15;;;14.00;99.90;;;;;;5073702;28;20048;-58
2021/09/05 07:40:58;;;;;;;49.95;25.42;;;14.00;99.90;;;;;;5092007;28;20044;-58
2021/09/05 07:43:23;;;;;;;54.28;26.00;;;14.10;99.90;;;;;;5091901;28;20173;-59
2021/09/05 07:45:49;;;;;;;64.93;25.20;;;14.00;99.90;;;;;;5091915;28;20043;-59
2021/09/05 07:48:15;;;;;;;46.05;24.67;;;14.10;99.90;;;;;;5073634;28;20080;-58
2021/09/05 07:50:41;;;;;;;45.72;23.92;;;14.10;99.90;;;;;;5091965;28;20480;-59
2021/09/05 07:53:07;;;;;;;44.28;25.75;;;14.20;99.90;;;;;;5092182;28;20123;-58
2021/09/05 07:55:32;;;;;;;39.78;26.20;;;14.10;99.90;;;;;;5073631;28;20443;-58
2021/09/05 07:57:58;;;;;;;40.78;25.27;;;14.30;99.90;;;;;;5091796;28;20036;-58
2021/09/05 08:00:24;;;;;;;35.83;24.67;;;14.40;99.90;;;;;;5091750;28;20126;-57
2021/09/05 08:02:49;;;;;;;40.13;25.85;;;14.40;99.90;;;;;;5091904;28;20036;-58
2021/09/05 08:05:15;;;;;;;30.75;20.67;;;14.40;99.90;;;;;;5091986;28;20124;-58
2021/09/05 08:07:41;;;;;;;29.25;21.20;;;14.50;99.90;;;;;;5091727;28;20059;-58
2021/09/05 08:10:07;;;;;;;31.50;22.25;;;14.50;99.90;;;;;;5091950;28;20032;-59
2021/09/05 08:12:33;;;;;;;30.45;21.50;;;14.50;99.90;;;;;;5091592;28;20489;-58
2021/09/05 08:14:58;;;;;;;35.22;23.20;;;14.60;99.90;;;;;;5091539;28;20154;-58
2021/09/05 08:17:24;;;;;;;25.63;20.02;;;14.50;99.90;;;;;;5073625;28;20113;-58
2021/09/05 08:19:50;;;;;;;27.98;21.05;;;14.60;99.90;;;;;;5091675;28;20125;-58
2021/09/05 08:22:16;;;;;;;25.75;19.42;;;14.50;99.90;;;;;;5091602;28;20169;-59
2021/09/05 08:24:42;;;;;;;31.85;21.25;;;14.60;99.90;;;;;;5091647;28;20044;-58
2021/09/05 08:27:08;;;;;;;30.33;22.23;;;14.60;99.90;;;;;;5091517;28;20044;-58
2021/09/05 08:29:33;;;;;;;30.77;21.92;;;14.50;99.90;;;;;;5073259;28;20394;-58
2021/09/05 08:31:59;;;;;;;33.45;21.63;;;14.70;99.90;;;;;;5095224;28;20132;-58
2021/09/05 08:34:25;;;;;;;32.22;22.05;;;14.70;99.90;;;;;;5095692;28;20180;-58
2021/09/05 08:36:50;;;;;;;31.48;23.42;;;14.70;99.90;;;;;;5095415;28;20052;-58
2021/09/05 08:39:16;;;;;;;30.08;22.58;;;14.80;99.90;;;;;;5095401;28;20086;-58
2021/09/05 08:41:42;;;;;;;28.08;22.83;;;14.90;99.90;;;;;;5095809;28;20036;-58
2021/09/05 08:44:08;;;;;;;31.45;21.80;;;15.10;99.90;;;;;;5095252;28;20072;-59
2021/09/05 08:46:34;;;;;;;29.17;22.02;;;15.30;99.90;;;;;;5095450;28;20528;-57
2021/09/05 08:49:04;;;;;;;28.67;21.75;;;15.30;99.90;;;;;;5095393;28;20056;-58
2021/09/05 08:51:30;;;;;;;24.77;20.23;;;15.30;99.90;;;;;;5095196;28;20047;-58
2021/09/05 08:53:58;;;;;;;25.40;20.05;;;15.40;99.90;;;;;;5095040;28;20032;-58
2021/09/05 08:56:24;;;;;;;25.52;19.42;;;15.70;99.90;;;;;;5095180;28;20428;-58
2021/09/05 08:58:49;;;;;;;22.42;19.33;;;16.00;99.90;;;;;;5094923;28;20036;-58
2021/09/05 09:01:17;;;;;;;23.42;19.02;;;16.30;99.90;;;;;;5095355;28;20089;-57
2021/09/05 09:03:43;;;;;;;25.38;18.33;;;16.70;99.90;;;;;;5094927;28;20393;-58
2021/09/05 09:06:08;;;;;;;23.48;19.25;;;17.00;99.90;;;;;;5095158;28;20113;-58
2021/09/05 09:08:34;;;;;;;22.73;18.30;;;17.20;99.90;;;;;;5095123;28;20032;-57
2021/09/05 09:11:04;;;;;;;22.15;16.58;;;17.40;99.90;;;;;;5094839;28;20071;-58
2021/09/05 09:13:35;;;;;;;20.73;16.10;;;17.90;99.90;;;;;;5094987;28;20050;-58
2021/09/05 09:16:09;;;;;;;22.95;17.17;;;18.20;99.90;;;;;;5076499;28;20040;-57
2021/09/05 09:18:37;;;;;;;19.58;16.08;;;18.30;99.90;;;;;;5094592;28;20630;-57
2021/09/05 09:21:06;;;;;;;19.23;15.00;;;18.80;99.90;;;;;;5094804;28;20079;-59
2021/09/05 09:23:34;;;;;;;19.48;15.45;;;19.20;99.90;;;;;;5094615;28;20036;-58
2021/09/05 09:26:09;;;;;;;19.20;15.23;;;18.80;99.90;;;;;;5076217;28;20048;-58
2021/09/05 09:28:46;;;;;;;16.42;14.73;;;18.60;99.90;;;;;;5094574;28;20047;-58
2021/09/05 09:31:18;;;;;;;18.65;15.10;;;18.50;99.90;;;;;;5094517;28;20068;-58
2021/09/05 09:33:47;;;;;;;17.58;15.23;;;18.40;99.90;;;;;;5094453;28;20067;-58
2021/09/05 09:36:15;;;;;;;30.17;15.63;;;18.60;99.90;;;;;;5094399;28;20430;-58
2021/09/05 09:38:44;;;;;;;16.85;13.77;;;18.50;99.90;;;;;;5094477;28;20479;-58
2021/09/05 09:41:15;;;;;;;17.33;13.00;;;18.70;99.90;;;;;;5094265;28;20051;-58
2021/09/05 09:43:50;;;;;;;14.30;12.73;;;18.60;99.90;;;;;;5094199;28;20545;-58
2021/09/05 09:46:18;;;;;;;17.02;13.85;;;18.90;99.90;;;;;;5094235;28;20035;-58
2021/09/05 09:48:50;;;;;;;15.95;13.80;;;19.00;99.90;;;;;;5093856;28;20044;-58
2021/09/05 09:51:16;;;;;;;16.20;14.30;;;18.90;99.90;;;;;;5094566;28;20035;-58
2021/09/05 09:53:43;;;;;;;16.67;13.70;;;18.90;99.90;;;;;;5093835;28;20541;-58
2021/09/05 09:56:13;;;;;;;19.42;15.32;;;18.70;99.90;;;;;;5093953;28;20119;-59
2021/09/05 09:58:39;;;;;;;16.35;13.75;;;18.50;99.90;;;;;;5094073;28;20040;-58
2021/09/05 10:01:05;;;;;;;16.33;13.68;;;18.30;99.90;;;;;;5094069;28;20058;-58
2021/09/05 10:03:32;;;;;;;17.60;14.45;;;18.50;99.90;;;;;;5093746;28;20119;-58
2021/09/05 10:05:59;;;;;;;17.65;14.00;;;18.30;99.90;;;;;;5075696;28;20119;-58
2021/09/05 10:08:26;;;;;;;16.35;14.18;;;18.10;99.90;;;;;;5093960;28;20040;-58
2021/09/05 10:10:56;;;;;;;18.67;13.98;;;18.00;99.90;;;;;;5093814;28;20097;-58
2021/09/05 10:13:24;;;;;;;16.85;14.93;;;18.10;99.90;;;;;;5093624;28;20078;-59
2021/09/05 10:15:50;;;;;;;18.55;15.30;;;18.30;99.90;;;;;;5093438;28;20478;-60
2021/09/05 10:18:15;;;;;;;18.65;14.25;;;18.10;99.90;;;;;;5093519;28;20047;-59
2021/09/05 10:20:44;;;;;;;15.45;13.27;;;18.20;99.90;;;;;;5093868;28;20046;-59
2021/09/05 10:23:10;;;;;;;;;;;18.40;99.90;;;;;;5093716;28;20490;-58
2021/09/05 10:25:37;;;;;;;17.40;13.38;;;18.30;99.90;;;;;;5093581;28;19919;-58
2021/09/05 10:28:05;;;;;;;16.80;13.38;;;18.20;99.90;;;;;;5093469;28;20082;-59
2021/09/05 10:30:30;;;;;;;17.00;13.63;;;18.20;99.90;;;;;;5093364;28;20051;-58
2021/09/05 10:32:58;;;;;;;17.75;14.38;;;18.20;99.90;;;;;;5093668;28;20040;-59
2021/09/05 10:35:44;;;;;;;18.95;14.00;;;18.20;99.90;;;;;;5093446;28;20044;-59
2021/09/05 10:38:10;;;;;;;19.65;14.25;;;18.30;99.90;;;;;;5093017;28;20059;-59
2021/09/05 10:40:53;;;;;;;18.35;15.30;;;18.20;99.90;;;;;;5093152;28;20052;-58
2021/09/05 10:43:20;;;;;;;17.67;14.90;;;18.20;99.90;;;;;;5093249;28;20043;-60
2021/09/05 10:45:49;;;;;;;16.67;13.48;;;18.50;99.90;;;;;;5093220;28;20055;-59
2021/09/05 10:48:29;;;;;;;18.75;15.02;;;18.50;99.90;;;;;;5074523;28;20478;-60
2021/09/05 10:51:25;;;;;;;17.20;15.02;;;18.40;99.90;;;;;;5092733;28;20509;-59
2021/09/05 10:54:10;;;;;;;21.67;15.40;;;18.60;99.90;;;;;;4990590;28;20057;-59
2021/09/05 10:56:44;;;;;;;20.90;15.02;;;18.60;99.90;;;;;;4991103;28;20085;-59
2021/09/05 10:59:16;;;;;;;20.33;14.68;;;18.70;99.90;;;;;;4991156;28;20112;-60
2021/09/05 11:01:57;;;;;;;19.73;15.15;;;18.60;99.90;;;;;;4991009;28;20082;-58
2021/09/05 11:04:39;;;;;;;17.35;14.40;;;18.60;99.90;;;;;;4990903;28;20053;-59
2021/09/05 11:07:08;;;;;;;18.48;14.02;;;18.80;99.90;;;;;;4991008;28;20053;-59
2021/09/05 11:09:34;;;;;;;20.30;14.80;;;19.00;99.90;;;;;;4990935;28;20053;-58
2021/09/05 11:12:22;;;;;;;20.38;15.45;;;19.20;99.90;;;;;;4990812;28;20050;-58
2021/09/05 11:14:48;;;;;;;19.48;15.95;;;19.30;99.90;;;;;;4990890;28;20038;-60
2021/09/05 11:17:17;;;;;;;18.33;15.35;;;19.40;99.90;;;;;;4990611;28;20052;-60
2021/09/05 11:19:43;;;;;;;;;;;19.40;99.90;;;;;;4991256;28;20092;-58
2021/09/05 11:22:10;;;;;;;18.00;14.00;;;19.40;99.90;;;;;;4990575;28;19918;-58
2021/09/05 11:24:37;;;;;;;22.48;15.10;;;19.70;99.90;;;;;;4990773;28;20173;-60
2021/09/05 11:27:05;;;;;;;18.63;14.05;;;19.80;99.90;;;;;;4990722;28;20049;-59
2021/09/05 11:29:32;;;;;;;15.57;12.90;;;19.80;99.90;;;;;;4990444;28;20121;-59
2021/09/05 11:32:02;;;;;;;16.27;14.35;;;19.80;99.90;;;;;;5088897;28;20075;-59
2021/09/05 11:34:27;;;;;;;17.98;14.48;;;19.80;99.90;;;;;;5092170;28;20428;-60
2021/09/05 11:36:54;;;;;;;20.48;14.50;;;19.80;99.90;;;;;;5091976;28;20059;-59
2021/09/05 11:39:20;;;;;;;15.98;13.15;;;19.70;99.90;;;;;;5091968;28;20139;-59
2021/09/05 11:41:51;;;;;;;18.70;14.02;;;19.70;99.90;;;;;;5092152;28;20044;-58
2021/09/05 11:44:30;;;;;;;18.08;13.02;;;19.90;99.90;;;;;;5091950;28;20157;-59
2021/09/05 11:47:09;;;;;;;20.27;12.93;;;20.00;99.90;;;;;;5092103;28;20043;-58
2021/09/05 11:49:35;;;;;;;;;;;20.10;99.90;;;;;;5092473;28;20300;-59
2021/09/05 11:52:01;;;;;;;18.58;13.38;;;19.80;99.90;;;;;;5092286;28;19915;-58
2021/09/05 11:54:27;;;;;;;15.20;13.27;;;20.00;99.90;;;;;;5091907;28;20032;-60
2021/09/05 11:56:54;;;;;;;22.23;15.27;;;20.00;99.90;;;;;;5091923;28;20028;-59
2021/09/05 11:59:19;;;;;;;15.63;13.82;;;20.10;99.90;;;;;;5091772;28;20051;-59
2021/09/05 12:01:50;;;;;;;17.83;14.27;;;20.00;99.90;;;;;;5091770;28;20044;-59
2021/09/05 12:04:16;;;;;;;18.38;13.65;;;20.10;99.90;;;;;;5091505;28;20051;-59
2021/09/05 12:06:43;;;;;;;15.35;12.65;;;20.30;99.90;;;;;;5091284;28;20044;-59
2021/09/05 12:09:09;;;;;;;14.25;11.60;;;20.30;99.90;;;;;;5091798;28;20040;-60
2021/09/05 12:11:57;;;;;;;17.05;11.93;;;20.40;99.90;;;;;;5091806;28;20036;-59
2021/09/05 12:14:33;;;;;;;14.82;10.88;;;20.50;99.90;;;;;;5091631;28;20386;-60
2021/09/05 12:17:19;;;;;;;18.63;12.18;;;20.60;99.90;;;;;;5091823;28;20036;-59
2021/09/05 12:20:03;;;;;;;14.60;11.48;;;20.50;99.90;;;;;;5091598;28;20040;-59
2021/09/05 12:22:47;;;;;;;14.45;11.13;;;20.30;99.90;;;;;;5091899;28;20048;-58
2021/09/05 12:25:19;;;;;;;15.95;11.55;;;20.50;99.90;;;;;;5091702;28;20126;-59
2021/09/05 12:27:56;;;;;;;16.83;11.57;;;20.60;99.90;;;;;;5091713;28;20043;-59